createdAt,value
2019-05-23T00:03:29.950Z,22.55
2019-05-23T00:08:36.340Z,22.56
2019-05-23T00:14:00.635Z,22.51
2019-05-23T00:19:05.703Z,22.49
2019-05-23T00:24:10.912Z,22.45
2019-05-23T00:29:16.954Z,22.42
2019-05-23T00:34:22.067Z,22.32
2019-05-23T00:39:27.332Z,22.30
2019-05-23T00:44:31.989Z,22.34
2019-05-23T00:49:37.503Z,22.31
2019-05-23T01:06:28.512Z,22.26
2019-05-23T01:11:35.352Z,22.22
2019-05-23T01:16:49.571Z,22.19
2019-05-23T01:22:07.311Z,22.19
2019-05-23T01:37:39.716Z,22.12
2019-05-23T01:42:44.449Z,22.10
2019-05-23T01:47:50.418Z,22.09
2019-05-23T01:52:55.887Z,22.08
2019-05-23T01:58:00.506Z,22.08
2019-05-23T02:03:05.425Z,22.03
2019-05-23T02:08:13.779Z,22.02
2019-05-23T02:13:20.053Z,22.02
2019-05-23T02:18:26.395Z,22.02
2019-05-23T02:23:30.968Z,22.01
2019-05-23T02:28:36.098Z,21.98
2019-05-23T02:33:41.728Z,21.98
2019-05-23T02:39:08.236Z,21.95
2019-05-23T02:44:20.237Z,21.95
2019-05-23T02:49:27.931Z,21.95
2019-05-23T02:54:36.977Z,21.93
2019-05-23T02:59:46.503Z,21.91
2019-05-23T03:04:52.789Z,21.90
2019-05-23T03:09:59.182Z,21.81
2019-05-23T03:15:04.600Z,21.89
2019-05-23T03:26:31.211Z,21.81
2019-05-23T03:31:54.385Z,21.87
2019-05-23T03:43:44.789Z,21.86
2019-05-23T03:48:58.257Z,21.77
2019-05-23T03:54:06.008Z,21.85
2019-05-23T03:59:12.917Z,21.85
2019-05-23T04:04:18.378Z,21.72
2019-05-23T04:09:23.110Z,21.72
2019-05-23T04:14:27.947Z,21.79
2019-05-23T04:19:33.572Z,21.80
2019-05-23T04:24:44.703Z,21.77
2019-05-23T04:29:53.608Z,21.78
2019-05-23T04:34:59.969Z,21.69
2019-05-23T04:40:09.593Z,21.78
2019-05-23T04:45:15.030Z,21.79
2019-05-23T04:50:20.527Z,21.78
2019-05-23T04:55:25.655Z,21.78
2019-05-23T05:00:33.713Z,21.77
2019-05-23T05:05:39.923Z,21.78
2019-05-23T05:10:49.144Z,21.78
2019-05-23T05:21:56.042Z,21.77
2019-05-23T05:27:01.916Z,21.79
2019-05-23T05:32:07.492Z,21.79
2019-05-23T05:37:12.010Z,21.79
2019-05-23T05:42:20.432Z,21.81
2019-05-23T05:47:28.593Z,21.80
2019-05-23T05:52:43.657Z,21.80
2019-05-23T05:57:48.715Z,21.73
2019-05-23T06:03:04.386Z,21.82
2019-05-23T06:08:07.968Z,21.73
2019-05-23T06:13:16.749Z,21.75
2019-05-23T06:18:23.286Z,21.83
2019-05-23T06:23:46.841Z,20.88
2019-05-23T06:28:51.543Z,18.88
2019-05-23T06:33:55.721Z,18.23
2019-05-23T06:38:59.961Z,17.57
2019-05-23T06:44:05.315Z,17.51
2019-05-23T06:49:09.513Z,17.51
2019-05-23T06:54:13.818Z,17.26
2019-05-23T06:59:18.091Z,17.32
2019-05-23T07:04:22.214Z,16.99
2019-05-23T07:09:26.434Z,16.52
2019-05-23T07:14:32.089Z,16.70
2019-05-23T07:19:36.502Z,18.72
2019-05-23T07:24:56.864Z,19.59
2019-05-23T07:29:46.941Z,19.91
2019-05-23T07:34:51.060Z,19.91
2019-05-23T07:39:55.085Z,20.09
2019-05-23T07:45:00.170Z,20.40
2019-05-23T07:50:04.411Z,20.49
2019-05-23T07:55:14.136Z,20.53
2019-05-23T08:00:24.101Z,20.59
2019-05-23T08:05:29.102Z,20.66
2019-05-23T08:10:34.454Z,20.72
2019-05-23T08:15:38.912Z,20.82
2019-05-23T08:20:43.532Z,20.82
2019-05-23T08:25:48.367Z,20.90
2019-05-23T08:30:52.561Z,20.95
2019-05-23T08:35:57.215Z,20.99
2019-05-23T08:41:01.433Z,21.03
2019-05-23T08:46:06.784Z,21.05
2019-05-23T08:51:12.199Z,21.11
2019-05-23T08:56:19.612Z,21.11
2019-05-23T09:01:22.871Z,21.15
2019-05-23T09:06:27.423Z,21.17
2019-05-23T09:11:33.090Z,21.19
2019-05-23T09:16:37.755Z,21.19
2019-05-23T09:21:42.804Z,21.19
2019-05-23T09:26:47.936Z,21.24
2019-05-23T09:31:52.562Z,21.24
2019-05-23T09:37:00.354Z,21.25
2019-05-23T09:42:03.156Z,21.32
2019-05-23T09:47:07.446Z,21.32
2019-05-23T09:52:12.721Z,21.32
2019-05-23T09:57:17.153Z,21.36
2019-05-23T10:02:21.578Z,21.36
2019-05-23T10:07:26.380Z,21.40
2019-05-23T10:12:30.614Z,21.42
2019-05-23T10:17:34.992Z,21.42
2019-05-23T10:22:39.206Z,21.42
2019-05-23T10:27:43.486Z,21.44
2019-05-23T10:32:47.811Z,21.45
2019-05-23T10:37:52.265Z,21.47
2019-05-23T10:42:56.411Z,20.56
2019-05-23T10:48:01.016Z,21.26
2019-05-23T10:53:05.191Z,21.26
2019-05-23T10:58:09.834Z,21.54
2019-05-23T11:03:14.104Z,21.58
2019-05-23T11:08:19.282Z,21.64
2019-05-23T11:13:23.973Z,21.68
2019-05-23T11:18:28.765Z,21.68
2019-05-23T11:23:40.757Z,21.73
2019-05-23T11:28:45.248Z,21.76
2019-05-23T11:33:49.574Z,21.81
2019-05-23T11:38:53.765Z,21.82
2019-05-23T11:43:58.003Z,21.81
2019-05-23T11:49:03.472Z,21.81
2019-05-23T11:54:10.115Z,21.83
2019-05-23T11:59:14.637Z,21.83
2019-05-23T12:04:20.713Z,21.87
2019-05-23T12:09:26.422Z,21.88
2019-05-23T12:14:30.885Z,21.89
2019-05-23T12:19:35.350Z,21.89
2019-05-23T12:24:39.869Z,21.88
2019-05-23T12:29:44.677Z,21.89
2019-05-23T12:35:09.745Z,21.91
2019-05-23T12:39:58.723Z,21.92
2019-05-23T12:45:03.051Z,21.91
2019-05-23T12:50:11.321Z,21.93
2019-05-23T12:55:15.819Z,21.98
2019-05-23T13:00:35.346Z,22.01
2019-05-23T13:05:40.374Z,22.03
2019-05-23T13:10:44.657Z,22.03
2019-05-23T13:15:50.777Z,22.12
2019-05-23T13:20:59.484Z,22.20
2019-05-23T13:26:02.414Z,22.11
2019-05-23T13:31:06.913Z,22.11
2019-05-23T13:36:11.386Z,22.30
2019-05-23T13:41:15.778Z,22.40
2019-05-23T13:46:22.034Z,22.35
2019-05-23T13:51:26.179Z,22.23
2019-05-23T13:56:30.305Z,22.39
2019-05-23T14:01:34.691Z,22.41
2019-05-23T14:06:39.052Z,22.38
2019-05-23T14:11:44.798Z,22.47
2019-05-23T14:17:16.693Z,22.47
2019-05-23T14:22:21.588Z,22.50
2019-05-23T14:27:33.506Z,22.48
2019-05-23T14:32:45.847Z,22.51
2019-05-23T14:37:52.612Z,22.51
2019-05-23T14:43:14.191Z,22.60
2019-05-23T14:48:32.397Z,22.60
2019-05-23T14:53:39.153Z,22.67
2019-05-23T14:58:43.532Z,22.67
2019-05-23T15:03:48.331Z,22.66
2019-05-23T15:08:52.722Z,22.66
2019-05-23T15:13:57.153Z,22.73
2019-05-23T15:19:01.774Z,22.73
2019-05-23T15:24:05.996Z,22.75
2019-05-23T15:29:10.031Z,22.77
2019-05-23T15:34:14.311Z,22.96
2019-05-23T15:39:20.057Z,22.98
2019-05-23T15:44:28.574Z,23.03
2019-05-23T15:49:30.278Z,23.05
2019-05-23T15:54:51.128Z,23.12
2019-05-23T16:00:08.260Z,23.12
2019-05-23T16:05:13.376Z,23.23
2019-05-23T16:10:18.037Z,23.37
2019-05-23T16:15:23.268Z,23.49
2019-05-23T16:20:27.840Z,23.51
2019-05-23T16:25:32.106Z,23.52
2019-05-23T16:30:37.418Z,23.49
2019-05-23T16:35:42.385Z,23.55
2019-05-23T16:46:21.230Z,23.46
2019-05-23T16:51:25.563Z,23.59
2019-05-23T16:56:37.054Z,23.62
2019-05-23T17:02:06.807Z,23.62
2019-05-23T17:07:29.289Z,23.68
2019-05-23T17:12:55.607Z,23.72
2019-05-23T17:18:08.437Z,23.74
2019-05-23T17:23:31.750Z,23.72
2019-05-23T17:28:39.842Z,23.76
2019-05-23T17:33:48.044Z,23.84
2019-05-23T17:38:53.039Z,23.86
2019-05-23T17:43:57.456Z,23.88
2019-05-23T17:49:01.957Z,23.85
2019-05-23T17:54:06.184Z,23.85
2019-05-23T17:59:10.423Z,23.56
2019-05-23T18:04:15.138Z,23.33
2019-05-23T18:09:21.231Z,23.53
2019-05-23T18:14:25.509Z,23.53
2019-05-23T18:19:30.111Z,23.53
2019-05-23T18:24:34.763Z,23.51
2019-05-23T18:29:38.943Z,23.52
2019-05-23T18:34:44.602Z,23.52
2019-05-23T18:39:48.699Z,23.53
2019-05-23T18:44:52.873Z,23.49
2019-05-23T18:49:57.332Z,23.47
2019-05-23T18:55:01.725Z,23.43
2019-05-23T19:00:10.227Z,23.43
2019-05-23T19:05:15.647Z,23.35
2019-05-23T19:10:20.297Z,23.33
2019-05-23T19:15:24.665Z,23.44
2019-05-23T19:20:28.705Z,23.37
2019-05-23T19:25:33.837Z,23.42
2019-05-23T19:47:04.079Z,23.41
2019-05-23T19:52:08.825Z,23.39
2019-05-23T19:57:15.608Z,23.38
2019-05-23T20:02:40.037Z,23.38
2019-05-23T20:07:52.909Z,23.36
2019-05-23T20:23:42.280Z,23.35
2019-05-23T20:28:46.747Z,23.27
2019-05-23T20:33:51.662Z,23.26
2019-05-23T20:38:56.186Z,23.33
2019-05-23T20:44:03.377Z,23.33
2019-05-23T20:49:11.021Z,23.25
2019-05-23T21:00:23.344Z,23.33
2019-05-23T21:05:27.896Z,23.31
2019-05-23T21:10:46.994Z,23.22
2019-05-23T21:15:53.358Z,23.32
2019-05-23T21:20:59.754Z,23.23
2019-05-23T21:26:06.443Z,23.30
2019-05-23T21:31:15.579Z,23.30
2019-05-23T21:36:20.080Z,23.29
2019-05-23T21:41:36.705Z,23.30
2019-05-23T21:46:41.119Z,23.23
2019-05-23T21:51:45.501Z,23.23
2019-05-23T21:56:49.647Z,23.34
2019-05-23T22:02:13.180Z,23.25
2019-05-23T22:07:17.799Z,23.32
2019-05-23T22:12:22.790Z,23.34
2019-05-23T22:17:27.796Z,23.33
2019-05-23T22:22:32.191Z,23.34
2019-05-23T22:27:36.623Z,23.34
2019-05-23T22:32:41.742Z,23.37
2019-05-23T22:37:46.185Z,23.38
2019-05-23T22:42:50.814Z,23.39
2019-05-23T22:47:55.128Z,23.40
2019-05-23T22:52:59.476Z,23.40
2019-05-23T22:58:03.789Z,23.34
2019-05-23T23:03:08.307Z,23.42
2019-05-23T23:08:12.893Z,23.42
2019-05-23T23:13:17.575Z,23.40
2019-05-23T23:18:22.054Z,23.36
2019-05-23T23:23:26.565Z,23.25
2019-05-23T23:28:31.080Z,23.28
2019-05-23T23:33:35.622Z,23.23
2019-05-23T23:38:40.443Z,23.19
2019-05-23T23:43:58.611Z,23.14
2019-05-23T23:49:08.648Z,23.09
2019-05-23T23:54:31.028Z,23.07
2019-05-23T23:59:34.644Z,23.00
